sensor_id;sensor_type;location;lat;lon;timestamp;P1;durP1;ratioP1;P2;durP2;ratioP2
23718;SDS011;43322;52.230;5.702;2023-11-19T00:00:46;65.78;;;25.92;;
23718;SDS011;43322;52.230;5.702;2023-11-19T00:03:12;68.45;;;26.25;;
23718;SDS011;43322;52.230;5.702;2023-11-19T00:05:40;65.60;;;24.98;;
23718;SDS011;43322;52.230;5.702;2023-11-19T00:08:07;54.22;;;23.58;;
23718;SDS011;43322;52.230;5.702;2023-11-19T00:10:34;52.17;;;23.58;;
23718;SDS011;43322;52.230;5.702;2023-11-19T00:13:01;57.42;;;23.58;;
23718;SDS011;43322;52.230;5.702;2023-11-19T00:15:29;59.28;;;22.63;;
23718;SDS011;43322;52.230;5.702;2023-11-19T00:17:56;53.83;;;21.40;;
23718;SDS011;43322;52.230;5.702;2023-11-19T00:20:22;52.10;;;20.92;;
23718;SDS011;43322;52.230;5.702;2023-11-19T00:22:50;54.80;;;19.85;;
23718;SDS011;43322;52.230;5.702;2023-11-19T00:25:17;52.33;;;20.23;;
23718;SDS011;43322;52.230;5.702;2023-11-19T00:27:44;52.35;;;18.38;;
23718;SDS011;43322;52.230;5.702;2023-11-19T00:30:11;54.97;;;19.63;;
23718;SDS011;43322;52.230;5.702;2023-11-19T00:32:38;47.65;;;18.48;;
23718;SDS011;43322;52.230;5.702;2023-11-19T00:35:05;45.85;;;17.60;;
23718;SDS011;43322;52.230;5.702;2023-11-19T00:37:33;51.95;;;17.83;;
23718;SDS011;43322;52.230;5.702;2023-11-19T00:40:01;41.88;;;17.38;;
23718;SDS011;43322;52.230;5.702;2023-11-19T00:42:30;52.17;;;17.17;;
23718;SDS011;43322;52.230;5.702;2023-11-19T00:44:57;50.20;;;16.98;;
23718;SDS011;43322;52.230;5.702;2023-11-19T00:47:24;46.67;;;15.52;;
23718;SDS011;43322;52.230;5.702;2023-11-19T00:49:50;47.13;;;15.95;;
23718;SDS011;43322;52.230;5.702;2023-11-19T00:52:17;42.72;;;14.98;;
23718;SDS011;43322;52.230;5.702;2023-11-19T00:54:44;48.17;;;14.95;;
23718;SDS011;43322;52.230;5.702;2023-11-19T00:57:12;37.33;;;14.10;;
23718;SDS011;43322;52.230;5.702;2023-11-19T00:59:41;43.63;;;14.27;;
23718;SDS011;43322;52.230;5.702;2023-11-19T01:02:08;43.50;;;13.00;;
23718;SDS011;43322;52.230;5.702;2023-11-19T01:04:35;37.63;;;12.55;;
23718;SDS011;43322;52.230;5.702;2023-11-19T01:07:02;35.97;;;13.32;;
23718;SDS011;43322;52.230;5.702;2023-11-19T01:09:30;40.58;;;13.02;;
23718;SDS011;43322;52.230;5.702;2023-11-19T01:11:59;56.53;;;14.30;;
23718;SDS011;43322;52.230;5.702;2023-11-19T01:14:28;45.40;;;12.98;;
23718;SDS011;43322;52.230;5.702;2023-11-19T01:16:55;50.78;;;12.57;;
23718;SDS011;43322;52.230;5.702;2023-11-19T01:19:22;50.53;;;12.55;;
23718;SDS011;43322;52.230;5.702;2023-11-19T01:21:49;43.47;;;12.23;;
23718;SDS011;43322;52.230;5.702;2023-11-19T01:24:16;50.05;;;12.00;;
23718;SDS011;43322;52.230;5.702;2023-11-19T01:26:43;48.40;;;10.88;;
23718;SDS011;43322;52.230;5.702;2023-11-19T01:29:10;43.65;;;11.38;;
23718;SDS011;43322;52.230;5.702;2023-11-19T01:31:40;47.15;;;11.77;;
23718;SDS011;43322;52.230;5.702;2023-11-19T01:34:06;54.28;;;10.95;;
23718;SDS011;43322;52.230;5.702;2023-11-19T01:36:33;42.47;;;10.93;;
23718;SDS011;43322;52.230;5.702;2023-11-19T01:39:00;48.72;;;10.45;;
23718;SDS011;43322;52.230;5.702;2023-11-19T01:41:28;41.33;;;10.20;;
23718;SDS011;43322;52.230;5.702;2023-11-19T01:43:54;53.03;;;10.50;;
23718;SDS011;43322;52.230;5.702;2023-11-19T01:46:21;40.75;;;9.75;;
23718;SDS011;43322;52.230;5.702;2023-11-19T01:48:49;52.15;;;9.25;;
23718;SDS011;43322;52.230;5.702;2023-11-19T01:51:16;45.65;;;9.50;;
23718;SDS011;43322;52.230;5.702;2023-11-19T01:53:43;54.38;;;10.23;;
23718;SDS011;43322;52.230;5.702;2023-11-19T01:56:11;48.78;;;9.63;;
23718;SDS011;43322;52.230;5.702;2023-11-19T01:58:40;57.88;;;9.13;;
23718;SDS011;43322;52.230;5.702;2023-11-19T02:01:09;59.05;;;8.70;;
23718;SDS011;43322;52.230;5.702;2023-11-19T02:03:37;47.42;;;9.15;;
23718;SDS011;43322;52.230;5.702;2023-11-19T02:06:06;49.88;;;9.10;;
23718;SDS011;43322;52.230;5.702;2023-11-19T02:08:35;53.05;;;9.55;;
23718;SDS011;43322;52.230;5.702;2023-11-19T02:11:02;55.72;;;8.50;;
23718;SDS011;43322;52.230;5.702;2023-11-19T02:13:28;64.07;;;9.30;;
23718;SDS011;43322;52.230;5.702;2023-11-19T02:15:55;51.50;;;8.27;;
23718;SDS011;43322;52.230;5.702;2023-11-19T02:18:23;51.92;;;9.60;;
23718;SDS011;43322;52.230;5.702;2023-11-19T02:20:53;52.15;;;8.85;;
23718;SDS011;43322;52.230;5.702;2023-11-19T02:23:21;50.00;;;8.48;;
23718;SDS011;43322;52.230;5.702;2023-11-19T02:25:53;49.53;;;8.20;;
23718;SDS011;43322;52.230;5.702;2023-11-19T02:28:27;68.80;;;9.45;;
23718;SDS011;43322;52.230;5.702;2023-11-19T02:30:54;46.45;;;7.40;;
23718;SDS011;43322;52.230;5.702;2023-11-19T02:33:21;64.55;;;8.27;;
23718;SDS011;43322;52.230;5.702;2023-11-19T02:35:49;49.47;;;9.05;;
23718;SDS011;43322;52.230;5.702;2023-11-19T02:38:17;53.50;;;8.07;;
23718;SDS011;43322;52.230;5.702;2023-11-19T02:40:43;52.40;;;8.07;;
23718;SDS011;43322;52.230;5.702;2023-11-19T02:43:10;49.38;;;8.63;;
23718;SDS011;43322;52.230;5.702;2023-11-19T02:45:38;44.17;;;6.90;;
23718;SDS011;43322;52.230;5.702;2023-11-19T02:48:05;59.33;;;8.00;;
23718;SDS011;43322;52.230;5.702;2023-11-19T02:50:32;52.92;;;7.88;;
23718;SDS011;43322;52.230;5.702;2023-11-19T02:52:59;58.25;;;8.00;;
23718;SDS011;43322;52.230;5.702;2023-11-19T02:55:26;44.95;;;7.90;;
23718;SDS011;43322;52.230;5.702;2023-11-19T02:57:56;52.42;;;8.57;;
23718;SDS011;43322;52.230;5.702;2023-11-19T03:00:24;49.00;;;8.60;;
23718;SDS011;43322;52.230;5.702;2023-11-19T03:02:59;54.38;;;7.53;;
23718;SDS011;43322;52.230;5.702;2023-11-19T03:05:30;41.28;;;7.28;;
23718;SDS011;43322;52.230;5.702;2023-11-19T03:07:57;46.80;;;7.90;;
23718;SDS011;43322;52.230;5.702;2023-11-19T03:10:23;52.30;;;7.65;;
23718;SDS011;43322;52.230;5.702;2023-11-19T03:12:51;50.03;;;7.68;;
23718;SDS011;43322;52.230;5.702;2023-11-19T03:15:17;53.42;;;7.55;;
23718;SDS011;43322;52.230;5.702;2023-11-19T03:17:46;55.20;;;7.68;;
23718;SDS011;43322;52.230;5.702;2023-11-19T03:20:14;43.22;;;7.13;;
23718;SDS011;43322;52.230;5.702;2023-11-19T03:22:42;54.50;;;8.50;;
23718;SDS011;43322;52.230;5.702;2023-11-19T03:25:09;62.33;;;7.38;;
23718;SDS011;43322;52.230;5.702;2023-11-19T03:27:36;49.25;;;7.30;;
23718;SDS011;43322;52.230;5.702;2023-11-19T03:30:04;59.88;;;9.25;;
23718;SDS011;43322;52.230;5.702;2023-11-19T03:32:31;51.25;;;7.65;;
23718;SDS011;43322;52.230;5.702;2023-11-19T03:34:59;55.33;;;7.88;;
23718;SDS011;43322;52.230;5.702;2023-11-19T03:37:27;52.83;;;8.65;;
23718;SDS011;43322;52.230;5.702;2023-11-19T03:39:54;45.75;;;7.90;;
23718;SDS011;43322;52.230;5.702;2023-11-19T03:42:24;60.00;;;8.25;;
23718;SDS011;43322;52.230;5.702;2023-11-19T03:44:51;56.55;;;7.80;;
23718;SDS011;43322;52.230;5.702;2023-11-19T03:47:18;47.65;;;7.63;;
23718;SDS011;43322;52.230;5.702;2023-11-19T03:49:47;56.47;;;7.50;;
23718;SDS011;43322;52.230;5.702;2023-11-19T03:52:14;56.97;;;8.52;;
23718;SDS011;43322;52.230;5.702;2023-11-19T03:54:42;50.35;;;8.50;;
23718;SDS011;43322;52.230;5.702;2023-11-19T03:57:10;56.42;;;8.02;;
23718;SDS011;43322;52.230;5.702;2023-11-19T03:59:37;53.60;;;7.82;;
23718;SDS011;43322;52.230;5.702;2023-11-19T04:02:04;52.88;;;6.95;;
23718;SDS011;43322;52.230;5.702;2023-11-19T04:04:31;63.72;;;7.88;;
23718;SDS011;43322;52.230;5.702;2023-11-19T04:06:58;55.00;;;8.60;;
23718;SDS011;43322;52.230;5.702;2023-11-19T04:09:25;52.75;;;8.60;;
23718;SDS011;43322;52.230;5.702;2023-11-19T04:11:53;65.72;;;7.93;;
23718;SDS011;43322;52.230;5.702;2023-11-19T04:14:20;59.70;;;9.05;;
23718;SDS011;43322;52.230;5.702;2023-11-19T04:16:47;54.58;;;7.65;;
23718;SDS011;43322;52.230;5.702;2023-11-19T04:19:13;56.95;;;9.23;;
23718;SDS011;43322;52.230;5.702;2023-11-19T04:21:40;64.53;;;9.40;;
23718;SDS011;43322;52.230;5.702;2023-11-19T04:24:07;55.33;;;8.45;;
23718;SDS011;43322;52.230;5.702;2023-11-19T04:26:39;63.42;;;9.05;;
23718;SDS011;43322;52.230;5.702;2023-11-19T04:29:08;61.88;;;8.98;;
23718;SDS011;43322;52.230;5.702;2023-11-19T04:31:36;50.13;;;7.75;;
23718;SDS011;43322;52.230;5.702;2023-11-19T04:34:03;69.35;;;8.63;;
23718;SDS011;43322;52.230;5.702;2023-11-19T04:36:29;51.78;;;8.52;;
23718;SDS011;43322;52.230;5.702;2023-11-19T04:38:56;58.83;;;8.75;;
23718;SDS011;43322;52.230;5.702;2023-11-19T04:41:24;65.75;;;8.73;;
23718;SDS011;43322;52.230;5.702;2023-11-19T04:43:52;70.85;;;9.52;;
23718;SDS011;43322;52.230;5.702;2023-11-19T04:46:20;60.53;;;9.35;;
23718;SDS011;43322;52.230;5.702;2023-11-19T04:48:48;43.03;;;8.82;;
23718;SDS011;43322;52.230;5.702;2023-11-19T04:51:15;67.22;;;8.30;;
23718;SDS011;43322;52.230;5.702;2023-11-19T04:53:42;56.08;;;8.75;;
23718;SDS011;43322;52.230;5.702;2023-11-19T04:56:09;56.05;;;8.75;;
23718;SDS011;43322;52.230;5.702;2023-11-19T04:58:36;63.60;;;8.10;;
23718;SDS011;43322;52.230;5.702;2023-11-19T05:01:03;63.28;;;9.70;;
23718;SDS011;43322;52.230;5.702;2023-11-19T05:03:32;51.83;;;7.95;;
23718;SDS011;43322;52.230;5.702;2023-11-19T05:05:58;52.25;;;7.85;;
23718;SDS011;43322;52.230;5.702;2023-11-19T05:08:25;52.38;;;8.65;;
23718;SDS011;43322;52.230;5.702;2023-11-19T05:10:52;56.38;;;8.45;;
23718;SDS011;43322;52.230;5.702;2023-11-19T05:13:18;59.70;;;8.27;;
23718;SDS011;43322;52.230;5.702;2023-11-19T05:15:45;50.33;;;7.97;;
23718;SDS011;43322;52.230;5.702;2023-11-19T05:18:12;63.92;;;9.57;;
23718;SDS011;43322;52.230;5.702;2023-11-19T05:20:40;59.42;;;8.27;;
23718;SDS011;43322;52.230;5.702;2023-11-19T05:23:06;64.45;;;8.52;;
23718;SDS011;43322;52.230;5.702;2023-11-19T05:25:33;61.60;;;8.32;;
23718;SDS011;43322;52.230;5.702;2023-11-19T05:28:00;64.10;;;8.18;;
23718;SDS011;43322;52.230;5.702;2023-11-19T05:30:26;51.75;;;8.68;;
23718;SDS011;43322;52.230;5.702;2023-11-19T05:32:53;63.67;;;8.77;;
23718;SDS011;43322;52.230;5.702;2023-11-19T05:35:20;50.70;;;7.78;;
23718;SDS011;43322;52.230;5.702;2023-11-19T05:37:48;55.88;;;8.77;;
23718;SDS011;43322;52.230;5.702;2023-11-19T05:40:15;51.55;;;7.80;;
23718;SDS011;43322;52.230;5.702;2023-11-19T05:42:42;49.65;;;7.72;;
23718;SDS011;43322;52.230;5.702;2023-11-19T05:45:10;64.63;;;9.27;;
23718;SDS011;43322;52.230;5.702;2023-11-19T05:47:38;50.00;;;8.20;;
23718;SDS011;43322;52.230;5.702;2023-11-19T05:50:05;64.80;;;9.02;;
23718;SDS011;43322;52.230;5.702;2023-11-19T05:52:33;49.55;;;8.02;;
23718;SDS011;43322;52.230;5.702;2023-11-19T05:55:01;45.47;;;8.43;;
23718;SDS011;43322;52.230;5.702;2023-11-19T05:57:29;66.93;;;8.20;;
23718;SDS011;43322;52.230;5.702;2023-11-19T05:59:56;53.75;;;8.70;;
23718;SDS011;43322;52.230;5.702;2023-11-19T06:02:24;55.65;;;7.72;;
23718;SDS011;43322;52.230;5.702;2023-11-19T06:04:52;54.80;;;8.65;;
23718;SDS011;43322;52.230;5.702;2023-11-19T06:07:19;58.53;;;8.95;;
23718;SDS011;43322;52.230;5.702;2023-11-19T06:09:45;46.53;;;7.78;;
23718;SDS011;43322;52.230;5.702;2023-11-19T06:12:13;55.67;;;8.98;;
23718;SDS011;43322;52.230;5.702;2023-11-19T06:14:40;49.15;;;8.23;;
23718;SDS011;43322;52.230;5.702;2023-11-19T06:17:07;59.83;;;7.80;;
23718;SDS011;43322;52.230;5.702;2023-11-19T06:19:36;59.55;;;8.60;;
23718;SDS011;43322;52.230;5.702;2023-11-19T06:22:03;52.28;;;7.57;;
23718;SDS011;43322;52.230;5.702;2023-11-19T06:24:29;53.22;;;8.10;;
23718;SDS011;43322;52.230;5.702;2023-11-19T06:26:56;54.17;;;7.68;;
23718;SDS011;43322;52.230;5.702;2023-11-19T06:29:24;55.00;;;8.88;;
23718;SDS011;43322;52.230;5.702;2023-11-19T06:31:51;63.00;;;8.13;;
23718;SDS011;43322;52.230;5.702;2023-11-19T06:34:18;58.70;;;7.75;;
23718;SDS011;43322;52.230;5.702;2023-11-19T06:36:44;51.28;;;8.20;;
23718;SDS011;43322;52.230;5.702;2023-11-19T06:39:11;51.47;;;8.60;;
23718;SDS011;43322;52.230;5.702;2023-11-19T06:41:38;55.22;;;8.93;;
23718;SDS011;43322;52.230;5.702;2023-11-19T06:44:04;56.80;;;8.75;;
23718;SDS011;43322;52.230;5.702;2023-11-19T06:46:32;55.42;;;8.93;;
23718;SDS011;43322;52.230;5.702;2023-11-19T06:48:59;56.17;;;7.82;;
23718;SDS011;43322;52.230;5.702;2023-11-19T06:51:26;52.15;;;7.57;;
23718;SDS011;43322;52.230;5.702;2023-11-19T06:53:52;53.28;;;7.88;;
23718;SDS011;43322;52.230;5.702;2023-11-19T06:56:20;64.88;;;9.35;;
23718;SDS011;43322;52.230;5.702;2023-11-19T06:58:47;61.42;;;8.50;;
23718;SDS011;43322;52.230;5.702;2023-11-19T07:01:14;54.70;;;8.23;;
23718;SDS011;43322;52.230;5.702;2023-11-19T07:03:42;59.58;;;8.60;;
23718;SDS011;43322;52.230;5.702;2023-11-19T07:06:09;50.30;;;7.55;;
23718;SDS011;43322;52.230;5.702;2023-11-19T07:08:37;49.25;;;7.82;;
23718;SDS011;43322;52.230;5.702;2023-11-19T07:11:04;50.15;;;7.65;;
23718;SDS011;43322;52.230;5.702;2023-11-19T07:13:31;58.63;;;7.57;;
23718;SDS011;43322;52.230;5.702;2023-11-19T07:15:58;54.33;;;7.93;;
23718;SDS011;43322;52.230;5.702;2023-11-19T07:18:24;67.57;;;9.35;;
23718;SDS011;43322;52.230;5.702;2023-11-19T07:20:52;50.28;;;7.63;;
23718;SDS011;43322;52.230;5.702;2023-11-19T07:23:20;50.90;;;7.65;;
23718;SDS011;43322;52.230;5.702;2023-11-19T07:25:46;48.67;;;8.07;;
23718;SDS011;43322;52.230;5.702;2023-11-19T07:28:15;57.80;;;8.07;;
23718;SDS011;43322;52.230;5.702;2023-11-19T07:30:42;51.58;;;7.43;;
23718;SDS011;43322;52.230;5.702;2023-11-19T07:33:09;57.30;;;8.60;;
23718;SDS011;43322;52.230;5.702;2023-11-19T07:35:36;56.42;;;8.02;;
23718;SDS011;43322;52.230;5.702;2023-11-19T07:38:04;73.60;;;9.25;;
23718;SDS011;43322;52.230;5.702;2023-11-19T07:40:30;52.47;;;8.38;;
23718;SDS011;43322;52.230;5.702;2023-11-19T07:42:57;55.53;;;7.40;;
23718;SDS011;43322;52.230;5.702;2023-11-19T07:45:24;61.85;;;8.75;;
23718;SDS011;43322;52.230;5.702;2023-11-19T07:47:52;62.55;;;8.48;;
23718;SDS011;43322;52.230;5.702;2023-11-19T07:50:19;52.67;;;8.10;;
23718;SDS011;43322;52.230;5.702;2023-11-19T07:52:46;73.63;;;8.27;;
23718;SDS011;43322;52.230;5.702;2023-11-19T07:55:14;57.08;;;9.40;;
23718;SDS011;43322;52.230;5.702;2023-11-19T07:57:41;63.28;;;8.85;;
23718;SDS011;43322;52.230;5.702;2023-11-19T08:00:08;46.10;;;7.97;;
23718;SDS011;43322;52.230;5.702;2023-11-19T08:02:37;58.38;;;8.32;;
23718;SDS011;43322;52.230;5.702;2023-11-19T08:05:04;55.63;;;8.30;;
23718;SDS011;43322;52.230;5.702;2023-11-19T08:07:31;58.25;;;8.27;;
23718;SDS011;43322;52.230;5.702;2023-11-19T08:09:57;65.82;;;8.55;;
23718;SDS011;43322;52.230;5.702;2023-11-19T08:12:26;49.63;;;7.90;;
23718;SDS011;43322;52.230;5.702;2023-11-19T08:14:53;54.95;;;7.60;;
23718;SDS011;43322;52.230;5.702;2023-11-19T08:17:19;58.53;;;8.63;;
23718;SDS011;43322;52.230;5.702;2023-11-19T08:19:48;50.10;;;7.75;;
23718;SDS011;43322;52.230;5.702;2023-11-19T08:22:14;46.00;;;6.97;;
23718;SDS011;43322;52.230;5.702;2023-11-19T08:24:41;55.67;;;7.53;;
23718;SDS011;43322;52.230;5.702;2023-11-19T08:27:08;51.22;;;7.80;;
23718;SDS011;43322;52.230;5.702;2023-11-19T08:29:36;56.42;;;8.15;;
23718;SDS011;43322;52.230;5.702;2023-11-19T08:32:03;53.35;;;7.82;;
23718;SDS011;43322;52.230;5.702;2023-11-19T08:34:31;57.78;;;8.38;;
23718;SDS011;43322;52.230;5.702;2023-11-19T08:36:58;61.58;;;8.30;;
23718;SDS011;43322;52.230;5.702;2023-11-19T08:39:25;60.42;;;8.63;;
23718;SDS011;43322;52.230;5.702;2023-11-19T08:41:52;54.70;;;8.25;;
23718;SDS011;43322;52.230;5.702;2023-11-19T08:44:20;58.92;;;8.85;;
23718;SDS011;43322;52.230;5.702;2023-11-19T08:46:49;62.53;;;7.93;;
23718;SDS011;43322;52.230;5.702;2023-11-19T08:49:15;63.65;;;8.02;;
23718;SDS011;43322;52.230;5.702;2023-11-19T08:51:42;58.67;;;8.25;;
23718;SDS011;43322;52.230;5.702;2023-11-19T08:54:09;54.75;;;8.35;;
23718;SDS011;43322;52.230;5.702;2023-11-19T08:56:37;56.80;;;7.18;;
23718;SDS011;43322;52.230;5.702;2023-11-19T08:59:04;53.20;;;8.65;;
23718;SDS011;43322;52.230;5.702;2023-11-19T09:01:31;53.92;;;8.55;;
23718;SDS011;43322;52.230;5.702;2023-11-19T09:03:59;52.95;;;9.40;;
23718;SDS011;43322;52.230;5.702;2023-11-19T09:06:26;48.58;;;8.02;;
23718;SDS011;43322;52.230;5.702;2023-11-19T09:08:53;51.05;;;7.28;;
23718;SDS011;43322;52.230;5.702;2023-11-19T09:11:23;49.63;;;7.38;;
23718;SDS011;43322;52.230;5.702;2023-11-19T09:13:50;60.60;;;8.55;;
23718;SDS011;43322;52.230;5.702;2023-11-19T09:16:16;48.03;;;8.55;;
23718;SDS011;43322;52.230;5.702;2023-11-19T09:18:43;46.53;;;7.35;;
23718;SDS011;43322;52.230;5.702;2023-11-19T09:21:11;46.95;;;8.02;;
23718;SDS011;43322;52.230;5.702;2023-11-19T09:23:38;55.13;;;8.27;;
23718;SDS011;43322;52.230;5.702;2023-11-19T09:26:05;52.30;;;7.75;;
23718;SDS011;43322;52.230;5.702;2023-11-19T09:28:35;45.65;;;7.53;;
23718;SDS011;43322;52.230;5.702;2023-11-19T09:31:01;51.97;;;8.60;;
23718;SDS011;43322;52.230;5.702;2023-11-19T09:33:29;43.95;;;7.28;;
23718;SDS011;43322;52.230;5.702;2023-11-19T09:35:56;46.00;;;7.05;;
23718;SDS011;43322;52.230;5.702;2023-11-19T09:38:25;45.60;;;8.15;;
23718;SDS011;43322;52.230;5.702;2023-11-19T09:40:51;50.25;;;7.43;;
23718;SDS011;43322;52.230;5.702;2023-11-19T09:43:18;47.38;;;7.65;;
23718;SDS011;43322;52.230;5.702;2023-11-19T09:45:48;36.20;;;7.45;;
23718;SDS011;43322;52.230;5.702;2023-11-19T09:48:16;45.65;;;7.18;;
23718;SDS011;43322;52.230;5.702;2023-11-19T09:50:43;52.10;;;7.35;;
23718;SDS011;43322;52.230;5.702;2023-11-19T09:53:10;47.55;;;6.88;;
23718;SDS011;43322;52.230;5.702;2023-11-19T09:55:38;43.88;;;7.07;;
23718;SDS011;43322;52.230;5.702;2023-11-19T09:58:06;48.35;;;7.93;;
23718;SDS011;43322;52.230;5.702;2023-11-19T10:00:33;60.28;;;8.05;;
23718;SDS011;43322;52.230;5.702;2023-11-19T10:03:00;42.72;;;7.68;;
23718;SDS011;43322;52.230;5.702;2023-11-19T10:05:30;47.53;;;8.32;;
23718;SDS011;43322;52.230;5.702;2023-11-19T10:07:57;44.22;;;7.45;;
23718;SDS011;43322;52.230;5.702;2023-11-19T10:10:24;40.42;;;6.43;;
23718;SDS011;43322;52.230;5.702;2023-11-19T10:12:52;49.15;;;7.95;;
23718;SDS011;43322;52.230;5.702;2023-11-19T10:15:20;40.40;;;7.38;;
23718;SDS011;43322;52.230;5.702;2023-11-19T10:17:49;34.13;;;6.53;;
23718;SDS011;43322;52.230;5.702;2023-11-19T10:20:16;48.25;;;6.85;;
23718;SDS011;43322;52.230;5.702;2023-11-19T10:22:43;43.60;;;7.15;;
23718;SDS011;43322;52.230;5.702;2023-11-19T10:25:21;45.42;;;7.05;;
23718;SDS011;43322;52.230;5.702;2023-11-19T10:27:48;46.88;;;6.88;;
23718;SDS011;43322;52.230;5.702;2023-11-19T10:30:18;47.13;;;7.07;;
23718;SDS011;43322;52.230;5.702;2023-11-19T10:32:57;57.78;;;7.47;;
23718;SDS011;43322;52.230;5.702;2023-11-19T10:35:29;54.97;;;7.82;;
23718;SDS011;43322;52.230;5.702;2023-11-19T10:37:56;45.60;;;8.00;;
23718;SDS011;43322;52.230;5.702;2023-11-19T10:40:26;47.65;;;7.13;;
23718;SDS011;43322;52.230;5.702;2023-11-19T10:43:04;41.65;;;6.47;;
23718;SDS011;43322;52.230;5.702;2023-11-19T10:45:34;43.47;;;6.80;;
23718;SDS011;43322;52.230;5.702;2023-11-19T10:48:00;40.50;;;7.50;;
23718;SDS011;43322;52.230;5.702;2023-11-19T10:50:29;47.90;;;7.50;;
23718;SDS011;43322;52.230;5.702;2023-11-19T10:52:56;45.72;;;6.43;;
23718;SDS011;43322;52.230;5.702;2023-11-19T10:55:26;34.90;;;6.18;;
23718;SDS011;43322;52.230;5.702;2023-11-19T10:57:55;46.08;;;7.32;;
23718;SDS011;43322;52.230;5.702;2023-11-19T11:00:24;35.13;;;6.38;;
23718;SDS011;43322;52.230;5.702;2023-11-19T11:02:55;34.15;;;6.70;;
23718;SDS011;43322;52.230;5.702;2023-11-19T11:05:26;39.83;;;7.05;;
23718;SDS011;43322;52.230;5.702;2023-11-19T11:07:55;39.35;;;6.32;;
23718;SDS011;43322;52.230;5.702;2023-11-19T11:10:22;47.70;;;6.85;;
23718;SDS011;43322;52.230;5.702;2023-11-19T11:12:52;45.10;;;7.90;;
23718;SDS011;43322;52.230;5.702;2023-11-19T11:15:24;32.67;;;6.13;;
23718;SDS011;43322;52.230;5.702;2023-11-19T11:17:56;40.50;;;7.18;;
23718;SDS011;43322;52.230;5.702;2023-11-19T11:20:26;51.03;;;7.45;;
23718;SDS011;43322;52.230;5.702;2023-11-19T11:22:57;40.95;;;7.18;;
23718;SDS011;43322;52.230;5.702;2023-11-19T11:25:39;47.13;;;7.82;;
23718;SDS011;43322;52.230;5.702;2023-11-19T11:28:16;39.47;;;6.13;;
23718;SDS011;43322;52.230;5.702;2023-11-19T11:30:49;36.80;;;6.05;;
23718;SDS011;43322;52.230;5.702;2023-11-19T11:33:32;43.67;;;6.88;;
23718;SDS011;43322;52.230;5.702;2023-11-19T11:36:10;42.28;;;7.20;;
23718;SDS011;43322;52.230;5.702;2023-11-19T11:38:44;44.78;;;6.93;;
23718;SDS011;43322;52.230;5.702;2023-11-19T11:41:15;45.38;;;6.25;;
23718;SDS011;43322;52.230;5.702;2023-11-19T11:43:44;34.72;;;6.00;;
23718;SDS011;43322;52.230;5.702;2023-11-19T11:49:13;38.22;;;6.57;;
23718;SDS011;43322;52.230;5.702;2023-11-19T11:52:02;41.80;;;6.03;;
23718;SDS011;43322;52.230;5.702;2023-11-19T11:54:30;32.40;;;5.68;;
23718;SDS011;43322;52.230;5.702;2023-11-19T11:57:04;30.30;;;5.88;;
23718;SDS011;43322;52.230;5.702;2023-11-19T11:59:43;32.03;;;5.55;;
23718;SDS011;43322;52.230;5.702;2023-11-19T12:02:12;32.78;;;6.10;;
23718;SDS011;43322;52.230;5.702;2023-11-19T12:04:42;36.65;;;6.65;;
23718;SDS011;43322;52.230;5.702;2023-11-19T12:07:13;33.90;;;5.80;;
23718;SDS011;43322;52.230;5.702;2023-11-19T12:09:41;29.73;;;5.03;;
23718;SDS011;43322;52.230;5.702;2023-11-19T12:12:17;40.42;;;7.55;;
23718;SDS011;43322;52.230;5.702;2023-11-19T12:15:01;28.25;;;6.00;;
23718;SDS011;43322;52.230;5.702;2023-11-19T12:17:37;36.35;;;6.40;;
23718;SDS011;43322;52.230;5.702;2023-11-19T12:20:10;38.08;;;7.15;;
23718;SDS011;43322;52.230;5.702;2023-11-19T12:22:38;41.75;;;6.95;;
23718;SDS011;43322;52.230;5.702;2023-11-19T12:25:06;36.03;;;6.00;;
23718;SDS011;43322;52.230;5.702;2023-11-19T12:27:34;40.45;;;6.90;;
23718;SDS011;43322;52.230;5.702;2023-11-19T12:30:01;43.72;;;7.60;;
23718;SDS011;43322;52.230;5.702;2023-11-19T12:32:37;45.33;;;7.05;;
23718;SDS011;43322;52.230;5.702;2023-11-19T12:35:05;44.13;;;6.07;;
23718;SDS011;43322;52.230;5.702;2023-11-19T12:37:39;33.35;;;6.00;;
23718;SDS011;43322;52.230;5.702;2023-11-19T12:40:10;31.80;;;6.45;;
23718;SDS011;43322;52.230;5.702;2023-11-19T12:42:42;34.72;;;6.70;;
23718;SDS011;43322;52.230;5.702;2023-11-19T12:45:09;33.70;;;5.97;;
23718;SDS011;43322;52.230;5.702;2023-11-19T12:47:37;38.33;;;5.28;;
23718;SDS011;43322;52.230;5.702;2023-11-19T12:50:04;26.13;;;5.95;;
23718;SDS011;43322;52.230;5.702;2023-11-19T12:52:31;30.05;;;6.07;;
23718;SDS011;43322;52.230;5.702;2023-11-19T12:54:59;35.17;;;5.72;;
23718;SDS011;43322;52.230;5.702;2023-11-19T12:57:36;34.90;;;5.70;;
23718;SDS011;43322;52.230;5.702;2023-11-19T13:00:07;29.83;;;5.88;;
23718;SDS011;43322;52.230;5.702;2023-11-19T13:02:45;36.80;;;5.95;;
23718;SDS011;43322;52.230;5.702;2023-11-19T13:05:25;30.00;;;5.40;;
23718;SDS011;43322;52.230;5.702;2023-11-19T13:08:00;40.25;;;5.97;;
23718;SDS011;43322;52.230;5.702;2023-11-19T13:10:29;30.83;;;5.50;;
23718;SDS011;43322;52.230;5.702;2023-11-19T13:12:59;46.30;;;6.90;;
23718;SDS011;43322;52.230;5.702;2023-11-19T13:15:27;31.58;;;5.80;;
23718;SDS011;43322;52.230;5.702;2023-11-19T13:17:54;36.65;;;5.57;;
23718;SDS011;43322;52.230;5.702;2023-11-19T13:20:21;25.60;;;4.75;;
23718;SDS011;43322;52.230;5.702;2023-11-19T13:22:54;39.22;;;6.07;;
23718;SDS011;43322;52.230;5.702;2023-11-19T13:25:24;34.45;;;6.20;;
23718;SDS011;43322;52.230;5.702;2023-11-19T13:27:53;34.78;;;4.93;;
23718;SDS011;43322;52.230;5.702;2023-11-19T13:30:19;26.25;;;5.55;;
23718;SDS011;43322;52.230;5.702;2023-11-19T13:32:47;27.33;;;4.82;;
23718;SDS011;43322;52.230;5.702;2023-11-19T13:35:13;30.27;;;5.25;;
23718;SDS011;43322;52.230;5.702;2023-11-19T13:37:40;32.03;;;5.40;;
23718;SDS011;43322;52.230;5.702;2023-11-19T13:40:07;31.00;;;4.75;;
23718;SDS011;43322;52.230;5.702;2023-11-19T13:42:36;33.05;;;5.53;;
23718;SDS011;43322;52.230;5.702;2023-11-19T13:45:07;31.52;;;5.95;;
23718;SDS011;43322;52.230;5.702;2023-11-19T13:47:35;29.73;;;5.50;;
23718;SDS011;43322;52.230;5.702;2023-11-19T13:50:02;35.78;;;5.22;;
23718;SDS011;43322;52.230;5.702;2023-11-19T13:52:31;32.55;;;5.57;;
23718;SDS011;43322;52.230;5.702;2023-11-19T13:54:58;33.90;;;5.55;;
23718;SDS011;43322;52.230;5.702;2023-11-19T13:57:24;39.95;;;6.20;;
23718;SDS011;43322;52.230;5.702;2023-11-19T13:59:51;29.00;;;5.47;;
23718;SDS011;43322;52.230;5.702;2023-11-19T14:02:19;31.63;;;5.00;;
23718;SDS011;43322;52.230;5.702;2023-11-19T14:04:46;29.58;;;4.95;;
23718;SDS011;43322;52.230;5.702;2023-11-19T14:07:12;36.00;;;6.03;;
23718;SDS011;43322;52.230;5.702;2023-11-19T14:09:41;40.42;;;6.05;;
23718;SDS011;43322;52.230;5.702;2023-11-19T14:12:08;30.98;;;5.10;;
23718;SDS011;43322;52.230;5.702;2023-11-19T14:14:37;35.55;;;5.68;;
23718;SDS011;43322;52.230;5.702;2023-11-19T14:17:05;36.03;;;5.95;;
23718;SDS011;43322;52.230;5.702;2023-11-19T14:19:34;35.92;;;5.82;;
23718;SDS011;43322;52.230;5.702;2023-11-19T14:22:00;32.33;;;5.35;;
23718;SDS011;43322;52.230;5.702;2023-11-19T14:24:27;33.83;;;5.90;;
23718;SDS011;43322;52.230;5.702;2023-11-19T14:26:54;32.80;;;5.72;;
23718;SDS011;43322;52.230;5.702;2023-11-19T14:29:23;36.65;;;5.40;;
23718;SDS011;43322;52.230;5.702;2023-11-19T14:31:51;36.42;;;5.82;;
23718;SDS011;43322;52.230;5.702;2023-11-19T14:34:17;40.72;;;5.97;;
23718;SDS011;43322;52.230;5.702;2023-11-19T14:36:46;42.38;;;6.57;;
23718;SDS011;43322;52.230;5.702;2023-11-19T14:39:14;45.95;;;6.30;;
23718;SDS011;43322;52.230;5.702;2023-11-19T14:41:42;42.33;;;6.00;;